Time;durP1;ratioP1;P1;durP2;ratioP2;P2;SDS_P1;SDS_P2;PMS_P1;PMS_P2;Temp;Humidity;BMP_temperature;BMP_pressure;BME280_temperature;BME280_humidity;BME280_pressure;Samples;Min_cycle;Max_cycle;Signal;HPM_P1;HPM_P2
2021/07/09 00:01:40;;;;;;;3.07;2.70;;;;;;;;;;5113454;28;20500;-76
2021/07/09 00:04:08;;;;;;;3.07;2.77;;;;;;;;;;5114784;28;20624;-76
2021/07/09 00:06:35;;;;;;;3.30;2.73;;;;;;;;;;5121860;27;20451;-76
2021/07/09 00:09:03;;;;;;;4.13;3.43;;;;;;;;;;5117353;27;20523;-76
2021/07/09 00:11:30;;;;;;;5.50;3.10;;;;;;;;;;5113221;28;20448;-74
2021/07/09 00:13:58;;;;;;;4.00;2.37;;;;;;;;;;5125048;27;20952;-76
2021/07/09 00:16:25;;;;;;;4.20;2.97;;;;;;;;;;5110327;28;20530;-76
2021/07/09 00:18:53;;;;;;;3.47;2.87;;;;;;;;;;5113204;28;20455;-77
2021/07/09 00:21:20;;;;;;;4.33;2.40;;;;;;;;;;5122943;27;20534;-76
2021/07/09 00:23:48;;;;;;;2.93;2.63;;;;;;;;;;5133456;27;20851;-76
2021/07/09 00:26:15;;;;;;;3.03;2.80;;;;;;;;;;5134689;27;20449;-76
2021/07/09 00:28:42;;;;;;;3.20;2.37;;;;;;;;;;5118165;27;20440;-77
2021/07/09 00:31:10;;;;;;;4.70;3.30;;;;;;;;;;5113517;28;20444;-76
2021/07/09 00:33:37;;;;;;;5.13;2.53;;;;;;;;;;5116372;27;20819;-76
2021/07/09 00:36:05;;;;;;;3.93;3.03;;;;;;;;;;5134790;27;20462;-76
2021/07/09 00:38:32;;;;;;;3.70;3.30;;;;;;;;;;5122667;27;20526;-76
2021/07/09 00:41:00;;;;;;;3.70;3.40;;;;;;;;;;5113431;28;20515;-76
2021/07/09 00:43:27;;;;;;;5.40;3.30;;;;;;;;;;5117369;27;20453;-76
2021/07/09 00:45:54;;;;;;;3.17;2.87;;;;;;;;;;5128124;27;20444;-76
2021/07/09 00:48:21;;;;;;;3.23;2.90;;;;;;;;;;5117147;27;20443;-76
2021/07/09 00:50:48;;;;;;;3.50;2.93;;;;;;;;;;5133807;27;20447;-75
2021/07/09 00:53:17;;;;;;;4.47;3.37;;;;;;;;;;5112059;27;20475;-75
2021/07/09 00:55:44;;;;;;;3.40;3.00;;;;;;;;;;5112662;28;20534;-75
2021/07/09 00:58:12;;;;;;;3.60;3.30;;;;;;;;;;5114069;27;20452;-75
2021/07/09 01:00:39;;;;;;;4.40;3.03;;;;;;;;;;5107614;28;20491;-76
2021/07/09 01:03:07;;;;;;;5.30;3.50;;;;;;;;;;5120336;27;20474;-75
2021/07/09 01:05:35;;;;;;;6.40;4.03;;;;;;;;;;5133566;27;20516;-75
2021/07/09 01:08:05;;;;;;;3.73;3.40;;;;;;;;;;5119138;27;20442;-76
2021/07/09 01:10:34;;;;;;;5.80;3.67;;;;;;;;;;5111989;28;20797;-75
2021/07/09 01:13:01;;;;;;;4.73;3.70;;;;;;;;;;5106504;28;20562;-75
2021/07/09 01:15:28;;;;;;;4.33;3.93;;;;;;;;;;5128063;27;20439;-76
2021/07/09 01:17:56;;;;;;;4.30;4.00;;;;;;;;;;5121091;27;20436;-75
2021/07/09 01:20:23;;;;;;;5.30;4.13;;;;;;;;;;5113126;28;20458;-76
2021/07/09 01:22:51;;;;;;;5.13;4.50;;;;;;;;;;5120468;27;20719;-76
2021/07/09 01:25:20;;;;;;;4.33;4.00;;;;;;;;;;5128491;27;20880;-76
2021/07/09 01:27:48;;;;;;;6.10;4.20;;;;;;;;;;5136677;27;20530;-77
2021/07/09 01:30:17;;;;;;;3.73;3.43;;;;;;;;;;5132202;27;20792;-77
2021/07/09 01:32:44;;;;;;;4.77;4.27;;;;;;;;;;5122293;27;20914;-76
2021/07/09 01:35:12;;;;;;;4.70;4.03;;;;;;;;;;5113643;27;20447;-77
2021/07/09 01:37:39;;;;;;;6.20;4.10;;;;;;;;;;5112506;28;20450;-77
2021/07/09 01:40:10;;;;;;;5.03;3.83;;;;;;;;;;5115340;27;20465;-77
2021/07/09 01:42:38;;;;;;;3.93;3.53;;;;;;;;;;5122880;27;20519;-77
2021/07/09 01:45:06;;;;;;;4.03;3.60;;;;;;;;;;5113337;28;20526;-76
2021/07/09 01:47:33;;;;;;;3.70;3.40;;;;;;;;;;5111474;28;20436;-75
2021/07/09 01:50:01;;;;;;;5.87;3.53;;;;;;;;;;5111986;28;20539;-75
2021/07/09 01:52:29;;;;;;;4.17;3.77;;;;;;;;;;5113029;28;20443;-76
2021/07/09 01:54:59;;;;;;;5.43;3.20;;;;;;;;;;5117944;27;20529;-76
2021/07/09 01:57:26;;;;;;;4.77;3.77;;;;;;;;;;5120917;27;20515;-75
2021/07/09 01:59:54;;;;;;;3.73;3.30;;;;;;;;;;5106114;27;20446;-76
2021/07/09 02:02:22;;;;;;;3.73;3.23;;;;;;;;;;5127739;27;20461;-75
2021/07/09 02:04:50;;;;;;;3.57;3.20;;;;;;;;;;5116442;27;20490;-75
2021/07/09 02:07:17;;;;;;;3.43;3.13;;;;;;;;;;5111589;28;20523;-75
2021/07/09 02:09:45;;;;;;;5.83;3.53;;;;;;;;;;5111491;28;20811;-76
2021/07/09 02:12:13;;;;;;;5.30;3.10;;;;;;;;;;5112242;28;20547;-75
2021/07/09 02:14:40;;;;;;;3.33;3.03;;;;;;;;;;5111691;28;20490;-75
2021/07/09 02:17:10;;;;;;;3.17;2.87;;;;;;;;;;5112518;28;20522;-76
2021/07/09 02:19:38;;;;;;;3.90;3.20;;;;;;;;;;5110325;28;21032;-75
2021/07/09 02:22:06;;;;;;;3.60;3.30;;;;;;;;;;5111886;28;20444;-75
2021/07/09 02:24:34;;;;;;;3.77;2.37;;;;;;;;;;5111538;28;20454;-75
2021/07/09 02:27:01;;;;;;;4.50;3.10;;;;;;;;;;5111919;28;20521;-76
2021/07/09 02:29:28;;;;;;;3.83;2.90;;;;;;;;;;5119846;27;20821;-75
2021/07/09 02:31:56;;;;;;;3.13;2.83;;;;;;;;;;5124499;27;20545;-76
2021/07/09 02:34:24;;;;;;;3.03;2.80;;;;;;;;;;5123548;27;21008;-76
2021/07/09 02:36:51;;;;;;;3.37;3.00;;;;;;;;;;5112174;28;20951;-75
2021/07/09 02:39:19;;;;;;;4.73;3.00;;;;;;;;;;5111484;28;20526;-76
2021/07/09 02:41:46;;;;;;;3.37;2.80;;;;;;;;;;5127792;28;20866;-76
2021/07/09 02:44:13;;;;;;;3.30;2.40;;;;;;;;;;5122567;28;20965;-76
2021/07/09 02:46:40;;;;;;;3.43;3.13;;;;;;;;;;5118437;27;20457;-75
2021/07/09 02:49:07;;;;;;;5.87;3.23;;;;;;;;;;5114313;28;20447;-75
2021/07/09 02:51:36;;;;;;;5.73;3.13;;;;;;;;;;5124075;27;20445;-75
2021/07/09 02:54:03;;;;;;;3.57;3.00;;;;;;;;;;5107084;28;20471;-75
2021/07/09 02:56:30;;;;;;;4.50;3.20;;;;;;;;;;5119922;27;20537;-73
2021/07/09 02:58:58;;;;;;;5.43;3.10;;;;;;;;;;5105407;28;20453;-75
2021/07/09 03:01:25;;;;;;;4.00;3.10;;;;;;;;;;5119203;27;20458;-75
2021/07/09 03:03:53;;;;;;;3.17;2.60;;;;;;;;;;5128761;27;20467;-75
2021/07/09 03:06:20;;;;;;;2.87;2.50;;;;;;;;;;5121341;27;20450;-75
2021/07/09 03:08:49;;;;;;;3.87;2.80;;;;;;;;;;5116523;27;20446;-75
2021/07/09 03:11:16;;;;;;;3.07;2.77;;;;;;;;;;5135707;27;20453;-75
2021/07/09 03:13:43;;;;;;;4.00;3.70;;;;;;;;;;5129607;27;20478;-75
2021/07/09 03:16:10;;;;;;;3.93;2.50;;;;;;;;;;5109367;27;20446;-77
2021/07/09 03:18:37;;;;;;;3.20;2.77;;;;;;;;;;5124116;27;20440;-74
2021/07/09 03:21:05;;;;;;;2.87;2.67;;;;;;;;;;5115180;28;20812;-75
2021/07/09 03:23:32;;;;;;;3.37;3.07;;;;;;;;;;5114771;27;20447;-75
2021/07/09 03:26:01;;;;;;;3.40;2.70;;;;;;;;;;5130578;27;20462;-75
2021/07/09 03:28:28;;;;;;;4.57;3.13;;;;;;;;;;5115307;28;20451;-75
2021/07/09 03:30:55;;;;;;;6.00;3.17;;;;;;;;;;5121187;27;20569;-75
2021/07/09 03:33:22;;;;;;;3.50;3.20;;;;;;;;;;5123892;27;20487;-75
2021/07/09 03:35:52;;;;;;;8.43;3.67;;;;;;;;;;5116662;27;20447;-75
2021/07/09 03:38:19;;;;;;;5.53;3.60;;;;;;;;;;5114725;28;20955;-75
2021/07/09 03:40:46;;;;;;;3.70;3.40;;;;;;;;;;5114196;28;20536;-75
2021/07/09 03:43:15;;;;;;;4.50;3.40;;;;;;;;;;5115773;27;20463;-75
2021/07/09 03:45:42;;;;;;;3.40;2.80;;;;;;;;;;5113593;28;20534;-75
2021/07/09 03:48:09;;;;;;;4.20;3.77;;;;;;;;;;5121725;27;20450;-75
2021/07/09 03:50:37;;;;;;;7.73;4.60;;;;;;;;;;5110160;27;20453;-78
2021/07/09 03:53:04;;;;;;;4.40;3.90;;;;;;;;;;5107544;28;20450;-76
2021/07/09 03:55:31;;;;;;;3.53;3.23;;;;;;;;;;5114417;28;20809;-75
2021/07/09 03:57:58;;;;;;;4.37;3.97;;;;;;;;;;5111774;28;20440;-77
2021/07/09 04:00:27;;;;;;;3.50;3.20;;;;;;;;;;5105561;28;20450;-77
2021/07/09 04:02:54;;;;;;;4.87;3.77;;;;;;;;;;5114255;28;20540;-79
2021/07/09 04:05:21;;;;;;;6.30;3.87;;;;;;;;;;5115677;28;20432;-76
2021/07/09 04:07:48;;;;;;;3.93;3.50;;;;;;;;;;5114569;28;20439;-75
2021/07/09 04:10:17;;;;;;;6.40;4.00;;;;;;;;;;5114210;28;20504;-77
2021/07/09 04:12:44;;;;;;;3.70;3.30;;;;;;;;;;5114067;28;20757;-74
2021/07/09 04:15:11;;;;;;;3.90;3.50;;;;;;;;;;5114337;28;20472;-78
2021/07/09 04:17:40;;;;;;;7.47;3.10;;;;;;;;;;5113883;27;20440;-79
2021/07/09 04:20:08;;;;;;;5.03;3.33;;;;;;;;;;5114370;28;20519;-80
2021/07/09 04:22:36;;;;;;;3.90;3.20;;;;;;;;;;5113976;28;20436;-79
2021/07/09 04:25:03;;;;;;;4.80;3.30;;;;;;;;;;5114641;28;20530;-77
2021/07/09 04:27:31;;;;;;;3.63;3.30;;;;;;;;;;5113869;28;20451;-75
2021/07/09 04:29:58;;;;;;;4.33;3.93;;;;;;;;;;5114363;28;20527;-77
2021/07/09 04:32:25;;;;;;;5.80;3.30;;;;;;;;;;5122255;27;20453;-77
2021/07/09 04:34:53;;;;;;;3.63;3.23;;;;;;;;;;5105507;27;20471;-78
2021/07/09 04:37:21;;;;;;;3.27;2.97;;;;;;;;;;5113170;28;20439;-73
2021/07/09 04:39:48;;;;;;;3.40;3.20;;;;;;;;;;5122582;27;20551;-77
2021/07/09 04:42:15;;;;;;;6.13;3.13;;;;;;;;;;5131691;27;20442;-76
2021/07/09 04:44:43;;;;;;;5.30;4.40;;;;;;;;;;5134187;27;20449;-76
2021/07/09 04:47:10;;;;;;;4.00;3.57;;;;;;;;;;5133989;27;20453;-76
2021/07/09 04:49:37;;;;;;;3.57;3.27;;;;;;;;;;5133922;27;20443;-75
2021/07/09 04:52:06;;;;;;;4.60;2.90;;;;;;;;;;5116852;27;20449;-75
2021/07/09 04:54:34;;;;;;;5.17;3.53;;;;;;;;;;5108447;28;20563;-75
2021/07/09 04:57:01;;;;;;;4.37;3.27;;;;;;;;;;5113138;28;20451;-75
2021/07/09 04:59:28;;;;;;;5.77;2.80;;;;;;;;;;5104647;27;20812;-75
2021/07/09 05:01:55;;;;;;;4.27;3.60;;;;;;;;;;5134536;27;20464;-75
2021/07/09 05:04:23;;;;;;;3.30;2.97;;;;;;;;;;5134110;27;20485;-75
2021/07/09 05:06:50;;;;;;;4.37;2.80;;;;;;;;;;5133243;27;20821;-75
2021/07/09 05:09:19;;;;;;;4.53;2.90;;;;;;;;;;5134113;27;20485;-75
2021/07/09 05:11:46;;;;;;;3.50;3.20;;;;;;;;;;5132829;27;20524;-75
2021/07/09 05:14:13;;;;;;;3.90;3.10;;;;;;;;;;5133722;27;20482;-76
2021/07/09 05:16:40;;;;;;;3.17;2.87;;;;;;;;;;5132879;27;20447;-75
2021/07/09 05:19:09;;;;;;;3.53;3.20;;;;;;;;;;5133921;27;20553;-77
2021/07/09 05:21:36;;;;;;;3.90;3.60;;;;;;;;;;5121991;27;20473;-77
2021/07/09 05:24:06;;;;;;;5.70;2.87;;;;;;;;;;5112803;28;20991;-77
2021/07/09 05:26:34;;;;;;;6.37;3.30;;;;;;;;;;5112415;28;20549;-76
2021/07/09 05:29:02;;;;;;;4.33;3.37;;;;;;;;;;5112836;28;20435;-76
2021/07/09 05:31:29;;;;;;;4.27;3.33;;;;;;;;;;5113106;28;20462;-77
2021/07/09 05:33:57;;;;;;;5.00;3.70;;;;;;;;;;5112835;28;20567;-76
2021/07/09 05:36:24;;;;;;;4.90;3.43;;;;;;;;;;5112618;28;20443;-76
2021/07/09 05:38:51;;;;;;;4.03;3.40;;;;;;;;;;5118542;27;20554;-76
2021/07/09 05:41:18;;;;;;;3.73;3.30;;;;;;;;;;5132990;27;20809;-77
2021/07/09 05:43:47;;;;;;;3.70;3.40;;;;;;;;;;5132522;27;20461;-77
2021/07/09 05:46:14;;;;;;;3.87;3.10;;;;;;;;;;5133080;27;20442;-77
2021/07/09 05:48:41;;;;;;;3.80;3.40;;;;;;;;;;5132767;27;20447;-77
2021/07/09 05:51:08;;;;;;;3.70;3.40;;;;;;;;;;5131752;27;20809;-77
2021/07/09 05:53:35;;;;;;;3.73;3.20;;;;;;;;;;5099392;28;20530;-77
2021/07/09 05:56:02;;;;;;;3.90;3.50;;;;;;;;;;5112237;28;20489;-77
2021/07/09 05:58:30;;;;;;;3.93;3.33;;;;;;;;;;5106584;28;20456;-77
2021/07/09 06:00:58;;;;;;;6.30;3.67;;;;;;;;;;5107262;28;20997;-77
2021/07/09 06:03:25;;;;;;;4.53;3.60;;;;;;;;;;5112426;28;20563;-77
2021/07/09 06:05:52;;;;;;;6.47;4.63;;;;;;;;;;5111635;28;20446;-77
2021/07/09 06:08:20;;;;;;;4.33;3.77;;;;;;;;;;5112740;28;20449;-78
2021/07/09 06:10:47;;;;;;;4.93;4.10;;;;;;;;;;5128359;27;20439;-78
2021/07/09 06:13:14;;;;;;;4.07;3.50;;;;;;;;;;5134147;27;20469;-78
2021/07/09 06:15:41;;;;;;;4.57;4.13;;;;;;;;;;5138891;27;21073;-76
2021/07/09 06:18:10;;;;;;;4.10;3.43;;;;;;;;;;5132757;27;20550;-77
2021/07/09 06:20:37;;;;;;;4.90;4.00;;;;;;;;;;5132074;27;20530;-76
2021/07/09 06:23:04;;;;;;;4.80;4.27;;;;;;;;;;5131657;27;20441;-77
2021/07/09 06:25:31;;;;;;;4.13;3.77;;;;;;;;;;5131638;27;20476;-77
2021/07/09 06:27:58;;;;;;;5.40;4.20;;;;;;;;;;5122463;27;20483;-77
2021/07/09 06:30:26;;;;;;;4.20;3.40;;;;;;;;;;5112306;28;20444;-78
2021/07/09 06:32:53;;;;;;;7.13;4.23;;;;;;;;;;5111841;28;20455;-76
2021/07/09 06:35:25;;;;;;;6.30;5.20;;;;;;;;;;5111815;28;21220;-78
2021/07/09 06:37:52;;;;;;;4.90;4.50;;;;;;;;;;5112257;28;20535;-78
2021/07/09 06:40:19;;;;;;;5.33;4.00;;;;;;;;;;5131312;28;20939;-78
2021/07/09 06:42:46;;;;;;;6.50;4.80;;;;;;;;;;5132100;28;20438;-77
2021/07/09 06:45:13;;;;;;;6.00;4.40;;;;;;;;;;5132075;28;20450;-78
2021/07/09 06:47:41;;;;;;;4.57;4.17;;;;;;;;;;5132455;28;20439;-79
2021/07/09 06:50:08;;;;;;;4.87;4.47;;;;;;;;;;5133155;28;20516;-79
2021/07/09 06:52:37;;;;;;;4.43;4.00;;;;;;;;;;5106056;28;20444;-78
2021/07/09 06:55:04;;;;;;;4.13;3.73;;;;;;;;;;5111028;28;20582;-77
2021/07/09 06:57:31;;;;;;;3.70;3.40;;;;;;;;;;5111340;28;20452;-76
2021/07/09 06:59:58;;;;;;;3.70;2.93;;;;;;;;;;5107491;28;20530;-78
2021/07/09 07:02:25;;;;;;;6.20;4.47;;;;;;;;;;5132603;28;20446;-77
2021/07/09 07:04:52;;;;;;;6.13;3.80;;;;;;;;;;5131719;28;20483;-77
2021/07/09 07:07:20;;;;;;;5.33;4.33;;;;;;;;;;5131916;28;20447;-79
2021/07/09 07:09:48;;;;;;;5.37;4.30;;;;;;;;;;5131469;28;20443;-78
2021/07/09 07:12:15;;;;;;;7.80;3.60;;;;;;;;;;5132133;28;20990;-78
2021/07/09 07:14:42;;;;;;;4.10;3.47;;;;;;;;;;5131316;28;20532;-78
2021/07/09 07:17:10;;;;;;;4.00;3.60;;;;;;;;;;5131913;28;20453;-77
2021/07/09 07:19:37;;;;;;;3.93;3.50;;;;;;;;;;5131514;28;20458;-78
2021/07/09 07:22:04;;;;;;;4.47;3.30;;;;;;;;;;5132309;28;20856;-78
2021/07/09 07:24:32;;;;;;;3.73;3.20;;;;;;;;;;5131754;28;20566;-78
2021/07/09 07:27:00;;;;;;;4.03;3.73;;;;;;;;;;5131965;28;20451;-78
2021/07/09 07:29:27;;;;;;;4.13;3.70;;;;;;;;;;5132094;28;20453;-78
2021/07/09 07:31:55;;;;;;;4.13;3.73;;;;;;;;;;5131362;28;20486;-77
2021/07/09 07:34:22;;;;;;;5.70;3.27;;;;;;;;;;5134166;27;20604;-78
2021/07/09 07:36:49;;;;;;;4.20;3.10;;;;;;;;;;5134527;27;20489;-78
2021/07/09 07:39:17;;;;;;;4.13;3.70;;;;;;;;;;5135739;27;20451;-77
2021/07/09 07:41:44;;;;;;;3.70;3.37;;;;;;;;;;5134977;27;20443;-78
2021/07/09 07:44:12;;;;;;;3.50;3.20;;;;;;;;;;5135823;27;20529;-77
2021/07/09 07:46:40;;;;;;;4.40;3.70;;;;;;;;;;5134544;27;20493;-78
2021/07/09 07:49:07;;;;;;;3.93;3.60;;;;;;;;;;5135924;27;20522;-78
2021/07/09 07:51:34;;;;;;;3.10;2.80;;;;;;;;;;5116840;27;20446;-78
2021/07/09 07:54:01;;;;;;;5.67;3.63;;;;;;;;;;5115167;28;20550;-77
2021/07/09 07:56:29;;;;;;;5.10;4.53;;;;;;;;;;5114682;28;20492;-78
2021/07/09 07:58:56;;;;;;;3.90;3.60;;;;;;;;;;5105270;28;20448;-78
2021/07/09 08:01:25;;;;;;;3.30;3.00;;;;;;;;;;5112912;28;20455;-78
2021/07/09 08:03:52;;;;;;;3.70;3.40;;;;;;;;;;5113998;28;20507;-78
2021/07/09 08:06:20;;;;;;;3.60;3.30;;;;;;;;;;5114333;28;20494;-77
2021/07/09 08:08:47;;;;;;;3.70;3.30;;;;;;;;;;5114324;28;20526;-77
2021/07/09 08:11:14;;;;;;;5.50;4.10;;;;;;;;;;5114365;28;20943;-78
2021/07/09 08:13:41;;;;;;;3.37;3.07;;;;;;;;;;5114082;28;20454;-76
2021/07/09 08:16:09;;;;;;;4.83;3.40;;;;;;;;;;5114257;28;20574;-76
2021/07/09 08:18:37;;;;;;;3.60;3.30;;;;;;;;;;5113739;28;20992;-76
2021/07/09 08:21:05;;;;;;;5.30;3.50;;;;;;;;;;5114345;28;20451;-77
2021/07/09 08:23:32;;;;;;;3.50;3.03;;;;;;;;;;5113968;28;20439;-76
2021/07/09 08:25:59;;;;;;;3.87;3.07;;;;;;;;;;5114247;28;20458;-76
2021/07/09 08:28:27;;;;;;;3.70;3.40;;;;;;;;;;5114003;28;20447;-76
2021/07/09 08:30:54;;;;;;;3.87;2.97;;;;;;;;;;5113814;28;20538;-76
2021/07/09 08:33:22;;;;;;;4.97;3.77;;;;;;;;;;5114093;28;20456;-77
2021/07/09 08:35:50;;;;;;;3.73;3.43;;;;;;;;;;5113136;28;20480;-75
2021/07/09 08:38:17;;;;;;;3.90;3.50;;;;;;;;;;5114280;28;20817;-76
2021/07/09 08:40:45;;;;;;;4.83;3.60;;;;;;;;;;5113690;28;20526;-76
2021/07/09 08:43:12;;;;;;;4.03;3.37;;;;;;;;;;5113894;28;20534;-76
2021/07/09 08:45:40;;;;;;;3.60;3.30;;;;;;;;;;5111786;28;20454;-75
2021/07/09 08:48:09;;;;;;;3.80;3.50;;;;;;;;;;5113874;28;20530;-76
2021/07/09 08:50:37;;;;;;;4.73;3.90;;;;;;;;;;5113494;28;20440;-76
2021/07/09 08:53:05;;;;;;;3.70;3.40;;;;;;;;;;5113471;28;20475;-75
2021/07/09 08:55:32;;;;;;;3.97;2.77;;;;;;;;;;5112858;28;20483;-75
2021/07/09 08:57:59;;;;;;;6.00;3.80;;;;;;;;;;5112018;28;20521;-75
2021/07/09 09:00:41;;;;;;;4.67;3.47;;;;;;;;;;5103947;28;20436;-76
2021/07/09 09:03:18;;;;;;;5.20;3.87;;;;;;;;;;5113141;28;20486;-75
2021/07/09 09:05:46;;;;;;;3.40;3.10;;;;;;;;;;5112462;28;20538;-75
2021/07/09 09:08:15;;;;;;;3.57;3.27;;;;;;;;;;5113070;28;20454;-75
2021/07/09 09:10:43;;;;;;;5.70;3.57;;;;;;;;;;5112825;28;20940;-76
2021/07/09 09:13:11;;;;;;;3.80;3.50;;;;;;;;;;5113205;28;20522;-76
2021/07/09 09:15:39;;;;;;;3.73;3.40;;;;;;;;;;5112006;28;20562;-76
2021/07/09 09:18:19;;;;;;;4.30;3.90;;;;;;;;;;5113203;28;20523;-76
2021/07/09 09:20:47;;;;;;;4.00;3.60;;;;;;;;;;5112428;28;20452;-77
2021/07/09 09:23:15;;;;;;;4.23;3.20;;;;;;;;;;5113089;28;20526;-76
2021/07/09 09:25:42;;;;;;;4.47;3.77;;;;;;;;;;5111635;28;20538;-76
2021/07/09 09:28:12;;;;;;;5.53;3.87;;;;;;;;;;5113106;28;20526;-76
2021/07/09 09:30:40;;;;;;;4.77;3.50;;;;;;;;;;5112312;28;20448;-77
2021/07/09 09:33:08;;;;;;;4.27;3.87;;;;;;;;;;5112583;28;20951;-77
2021/07/09 09:35:37;;;;;;;4.77;4.10;;;;;;;;;;5111809;28;20562;-76
2021/07/09 09:38:06;;;;;;;4.90;3.47;;;;;;;;;;5113155;28;20444;-76
2021/07/09 09:40:35;;;;;;;3.33;3.03;;;;;;;;;;5117470;27;20534;-76
2021/07/09 09:43:06;;;;;;;3.60;3.17;;;;;;;;;;5133107;27;20439;-76
2021/07/09 09:45:34;;;;;;;3.80;3.17;;;;;;;;;;5132389;27;20545;-76
2021/07/09 09:48:04;;;;;;;4.73;3.20;;;;;;;;;;5132910;27;20457;-76
2021/07/09 09:50:32;;;;;;;4.20;3.67;;;;;;;;;;5132518;27;20443;-75
2021/07/09 09:52:59;;;;;;;5.77;3.80;;;;;;;;;;5103505;27;20440;-76
2021/07/09 09:55:32;;;;;;;4.00;3.60;;;;;;;;;;5112383;28;20571;-76
2021/07/09 09:58:09;;;;;;;4.27;3.87;;;;;;;;;;5110893;28;20531;-76
2021/07/09 10:00:37;;;;;;;4.57;3.60;;;;;;;;;;5116135;27;20859;-76
2021/07/09 10:03:05;;;;;;;4.00;3.60;;;;;;;;;;5136672;27;21069;-76
2021/07/09 10:05:32;;;;;;;3.77;3.37;;;;;;;;;;5132448;27;20442;-76
2021/07/09 10:07:59;;;;;;;5.07;3.90;;;;;;;;;;5133354;27;20880;-76
2021/07/09 10:10:28;;;;;;;5.50;4.43;;;;;;;;;;5133140;27;20846;-77
2021/07/09 10:12:56;;;;;;;3.70;3.33;;;;;;;;;;5133035;27;20435;-76
2021/07/09 10:15:25;;;;;;;4.83;4.43;;;;;;;;;;5132806;27;20569;-76
2021/07/09 10:17:55;;;;;;;4.40;4.00;;;;;;;;;;5131862;27;20482;-76
2021/07/09 10:20:22;;;;;;;5.30;4.13;;;;;;;;;;5132694;27;20513;-76
2021/07/09 10:22:50;;;;;;;5.60;5.20;;;;;;;;;;5132359;27;20441;-77
2021/07/09 10:25:18;;;;;;;4.17;3.87;;;;;;;;;;5132440;27;20451;-77
2021/07/09 10:27:45;;;;;;;4.20;3.87;;;;;;;;;;5132740;27;20426;-77
2021/07/09 10:30:13;;;;;;;5.10;4.40;;;;;;;;;;5132884;27;20441;-77
2021/07/09 10:32:43;;;;;;;4.30;3.90;;;;;;;;;;5132610;27;20533;-77
2021/07/09 10:35:10;;;;;;;5.73;4.60;;;;;;;;;;5131936;27;20442;-77
2021/07/09 10:37:38;;;;;;;5.83;4.50;;;;;;;;;;5132371;27;20522;-76
2021/07/09 10:40:10;;;;;;;4.93;4.37;;;19.10;99.90;;;;;;5132812;28;20474;-77
2021/07/09 10:42:41;;;;;;;6.70;4.90;;;20.50;99.90;;;;;;5132523;27;20443;-77
2021/07/09 10:45:11;;;;;;;6.00;5.50;;;20.60;51.40;;;;;;5132835;28;20764;-76
2021/07/09 10:47:52;;;;;;;5.60;5.10;;;20.70;1.10;;;;;;5132073;28;20485;-77
2021/07/09 10:50:33;;;;;;;7.97;5.10;;;21.00;99.90;;;;;;5133037;28;20442;-78
2021/07/09 10:53:00;;;;;;;6.00;5.40;;;21.60;99.90;;;;;;5103123;27;20450;-77
2021/07/09 10:55:42;;;;;;;6.80;5.97;;;21.80;99.90;;;;;;5112105;28;20558;-77
2021/07/09 10:58:32;;;;;;;6.23;5.63;;;21.80;1.00;;;;;;5110363;28;20489;-77
2021/07/09 11:01:09;;;;;;;7.10;6.40;;;21.90;1.00;;;;;;5124133;28;21186;-77
2021/07/09 11:03:39;;;;;;;7.20;6.33;;;21.90;1.00;;;;;;5154451;28;20491;-78
2021/07/09 11:06:08;;;;;;;7.73;6.13;;;21.60;99.90;;;;;;5155163;28;20443;-75
2021/07/09 11:09:03;;;;;;;9.07;6.30;;;21.70;99.90;;;;;;5155148;27;20474;-76
2021/07/09 11:11:42;;;;;;;6.70;5.80;;;21.70;1.00;;;;;;5156336;27;20473;-77
2021/07/09 11:14:10;;;;;;;6.53;5.93;;;22.10;99.90;;;;;;5154729;27;20454;-75
2021/07/09 11:16:39;;;;;;;7.50;5.97;;;22.20;1.00;;;;;;5144016;27;20460;-76
2021/07/09 11:19:10;;;;;;;7.93;6.83;;;22.00;99.90;;;;;;5138013;28;20514;-76
2021/07/09 11:22:03;;;;;;;6.83;6.13;;;22.30;1.00;;;;;;5137136;28;20447;-77
2021/07/09 11:24:32;;;;;;;7.83;5.97;;;22.20;99.90;;;;;;5123037;28;20471;-76
2021/07/09 11:27:01;;;;;;;6.07;5.60;;;22.10;50.40;;;;;;5124512;28;20959;-77
2021/07/09 11:29:34;;;;;;;6.30;5.80;;;22.00;65.00;;;;;;5116096;28;20432;-77
2021/07/09 11:32:03;;;;;;;6.17;5.57;;;;;;;;;;5115934;28;20947;-76
2021/07/09 11:34:33;;;;;;;11.60;7.37;;;21.90;1.00;;;;;;5115188;28;20447;-75
2021/07/09 11:37:02;;;;;;;8.00;7.20;;;20.80;99.90;;;;;;5115750;28;20567;-76
2021/07/09 11:39:31;;;;;;;7.43;6.60;;;20.60;1.00;;;;;;5115510;28;20531;-76
2021/07/09 11:42:00;;;;;;;10.33;6.70;;;20.40;1.00;;;;;;5120732;27;20450;-76
2021/07/09 11:44:29;;;;;;;8.17;7.00;;;20.50;99.90;;;;;;5135915;27;20478;-76
2021/07/09 11:46:58;;;;;;;7.20;6.50;;;21.00;99.90;;;;;;5135588;27;20450;-76
2021/07/09 11:49:26;;;;;;;8.20;6.60;;;;;;;;;;5135493;27;20442;-76
2021/07/09 11:51:55;;;;;;;7.43;6.73;;;;;;;;;;5120882;27;20440;-76
2021/07/09 11:54:23;;;;;;;7.90;7.13;;;;;;;;;;5108730;28;20444;-76
2021/07/09 11:56:55;;;;;;;6.90;6.30;;;;;;;;;;5114523;28;20621;-76
2021/07/09 11:59:22;;;;;;;7.47;6.87;;;;;;;;;;5103931;27;20487;-76
2021/07/09 12:02:09;;;;;;;8.43;7.63;;;;;;;;;;5135351;27;20651;-76
2021/07/09 12:04:37;;;;;;;8.20;7.07;;;;;;;;;;5134496;27;20478;-75
2021/07/09 12:07:22;;;;;;;10.00;7.67;;;;;;;;;;5135683;27;20529;-76
2021/07/09 12:09:50;;;;;;;9.10;7.90;;;;;;;;;;5134707;27;20439;-75
2021/07/09 12:12:18;;;;;;;8.47;7.70;;;;;;;;;;5135565;27;20530;-75
2021/07/09 12:15:03;;;;;;;7.93;7.20;;;;;;;;;;5134723;27;20474;-76
2021/07/09 12:17:31;;;;;;;8.83;7.93;;;;;;;;;;5134990;27;20589;-75
2021/07/09 12:20:00;;;;;;;7.70;6.90;;;;;;;;;;5134132;27;20522;-76
2021/07/09 12:22:31;;;;;;;7.90;7.10;;;;;;;;;;5135426;27;20443;-76
2021/07/09 12:25:01;;;;;;;8.37;7.57;;;;;;;;;;5135010;27;20446;-76
2021/07/09 12:27:29;;;;;;;7.60;6.90;;;;;;;;;;5135312;27;20537;-76
2021/07/09 12:29:56;;;;;;;7.40;6.60;;;;;;;;;;5135396;27;20822;-76
2021/07/09 12:32:23;;;;;;;6.87;6.10;;;;;;;;;;5134681;27;20554;-76
2021/07/09 12:34:50;;;;;;;4.70;4.30;;;;;;;;;;5134082;27;20774;-76
2021/07/09 12:37:24;;;;;;;7.00;5.57;;;;;;;;;;5135103;27;20481;-75
2021/07/09 12:39:52;;;;;;;6.50;6.00;;;;;;;;;;5134691;27;20443;-75
2021/07/09 12:42:22;;;;;;;7.40;5.20;;;;;;;;;;5127268;27;20833;-75
2021/07/09 12:44:53;;;;;;;9.00;5.30;;;;;;;;;;5114086;27;20531;-75
2021/07/09 12:47:20;;;;;;;6.27;5.67;;;;;;;;;;5134354;27;20450;-76
2021/07/09 12:49:48;;;;;;;5.93;5.37;;;;;;;;;;5133853;27;20799;-76
2021/07/09 12:52:16;;;;;;;6.53;5.90;;;;;;;;;;5114532;27;20445;-76
2021/07/09 12:54:43;;;;;;;5.60;5.10;;;;;;;;;;5109477;28;20439;-75
2021/07/09 12:57:12;;;;;;;4.90;4.10;;;;;;;;;;5113935;28;20509;-75
2021/07/09 12:59:39;;;;;;;4.40;3.50;;;;;;;;;;5113449;28;20451;-76
2021/07/09 13:02:08;;;;;;;4.00;3.53;;;;;;;;;;5113441;28;20488;-76
2021/07/09 13:04:36;;;;;;;3.40;3.10;;;;;;;;;;5112411;28;20471;-76
2021/07/09 13:07:07;;;;;;;3.43;3.10;;;;;;;;;;5113791;28;20455;-76
2021/07/09 13:09:35;;;;;;;4.80;4.20;;;;;;;;;;5112680;28;20531;-76
2021/07/09 13:12:13;;;;;;;4.33;4.00;;;;;;;;;;5113403;28;20998;-76
2021/07/09 13:14:51;;;;;;;4.23;3.67;;;21.60;99.90;;;;;;5112717;28;20432;-76
2021/07/09 13:17:19;;;;;;;4.00;3.30;;;23.40;99.90;;;;;;5129535;27;20466;-76
2021/07/09 13:19:56;;;;;;;4.00;3.30;;;23.10;99.90;;;;;;5124318;27;20443;-76
2021/07/09 13:22:30;;;;;;;3.83;3.40;;;23.10;99.90;;;;;;5113342;28;20431;-76
2021/07/09 13:25:08;;;;;;;3.97;3.63;;;23.10;99.90;;;;;;5113051;28;20927;-76
2021/07/09 13:27:37;;;;;;;3.63;3.33;;;22.90;99.90;;;;;;5112479;28;20479;-75
2021/07/09 13:30:06;;;;;;;5.03;3.33;;;22.90;99.90;;;;;;5112680;28;20486;-76
2021/07/09 13:32:35;;;;;;;3.50;3.20;;;23.30;99.90;;;;;;5111878;28;20443;-76
2021/07/09 13:35:02;;;;;;;6.80;3.90;;;;;;;;;;5112407;28;20504;-76
2021/07/09 13:37:30;;;;;;;3.50;3.20;;;;;;;;;;5113132;28;20808;-76
2021/07/09 13:39:57;;;;;;;3.77;3.47;;;;;;;;;;5112914;28;20543;-76
2021/07/09 13:42:24;;;;;;;3.53;3.20;;;;;;;;;;5112833;28;20482;-76
2021/07/09 13:44:52;;;;;;;3.67;3.47;;;;;;;;;;5112134;28;20473;-76
2021/07/09 13:47:20;;;;;;;4.00;3.70;;;;;;;;;;5112941;28;20531;-76
2021/07/09 13:49:47;;;;;;;3.53;3.23;;;;;;;;;;5112261;28;20527;-77
2021/07/09 13:52:14;;;;;;;3.97;3.40;;;;;;;;;;5103130;28;20470;-76
2021/07/09 13:54:41;;;;;;;3.07;2.77;;;23.60;99.90;;;;;;5124916;27;20481;-77
2021/07/09 13:57:08;;;;;;;3.43;3.13;;;24.80;99.90;;;;;;5132888;27;20566;-77
2021/07/09 13:59:35;;;;;;;3.30;2.93;;;;;;;;;;5117443;27;20486;-76
2021/07/09 14:02:03;;;;;;;3.73;3.43;;;;;;;;;;5112673;28;20534;-76
2021/07/09 14:04:31;;;;;;;3.00;2.80;;;;;;;;;;5111914;28;20483;-76
2021/07/09 14:06:57;;;;;;;4.70;3.20;;;24.60;99.90;;;;;;5112620;28;20542;-77
2021/07/09 14:09:24;;;;;;;3.10;2.63;;;23.80;99.90;;;;;;5112444;28;20447;-77
2021/07/09 14:11:51;;;;;;;2.80;2.30;;;23.60;99.90;;;;;;5111447;28;20534;-77
2021/07/09 14:14:19;;;;;;;2.90;2.60;;;23.90;99.90;;;;;;5112034;28;20444;-77
2021/07/09 14:16:46;;;;;;;2.13;2.03;;;23.80;99.90;;;;;;5112277;28;20483;-76
2021/07/09 14:19:14;;;;;;;2.67;2.47;;;23.70;99.90;;;;;;5112490;28;20455;-76
2021/07/09 14:21:41;;;;;;;2.60;2.40;;;23.70;99.90;;;;;;5111629;28;20446;-77
2021/07/09 14:24:08;;;;;;;3.77;2.97;;;23.90;99.90;;;;;;5112097;28;20454;-77
2021/07/09 14:26:35;;;;;;;3.00;2.70;;;24.10;99.90;;;;;;5112020;28;20508;-77
2021/07/09 14:29:02;;;;;;;6.33;3.13;;;;;;;;;;5112234;28;20499;-76
2021/07/09 14:31:30;;;;;;;4.53;2.90;;;;;;;;;;5112176;28;20979;-76
2021/07/09 14:33:58;;;;;;;2.80;2.57;;;;;;;;;;5112153;28;20534;-76